createdAt,value
2017-07-15T00:07:16.000Z,44.41
2017-07-15T00:17:16.000Z,44.441
2017-07-15T00:27:16.000Z,44.524
2017-07-15T00:37:16.000Z,44.577
2017-07-15T00:47:16.000Z,44.672
2017-07-15T00:57:16.000Z,44.737
2017-07-15T01:07:16.000Z,44.789
2017-07-15T01:17:16.000Z,44.863
2017-07-15T01:27:16.000Z,44.925
2017-07-15T01:37:16.000Z,44.978
2017-07-15T01:47:16.000Z,45.041
2017-07-15T01:57:16.000Z,45.094
2017-07-15T02:07:16.000Z,45.146
2017-07-15T02:17:16.000Z,45.198
2017-07-15T02:27:16.000Z,45.262
2017-07-15T02:37:16.000Z,45.357
2017-07-15T02:47:16.000Z,45.419
2017-07-15T02:57:16.000Z,45.452
2017-07-15T03:07:16.000Z,45.537
2017-07-15T03:17:16.000Z,45.545
2017-07-15T03:27:17.000Z,45.697
2017-07-15T03:37:17.000Z,45.673
2017-07-15T03:47:17.000Z,45.792
2017-07-15T03:57:17.000Z,45.812
2017-07-15T04:07:17.000Z,45.887
2017-07-15T04:17:17.000Z,45.898
2017-07-15T04:27:17.000Z,45.92
2017-07-15T04:37:17.000Z,46.062
2017-07-15T04:47:17.000Z,46.126
2017-07-15T04:57:17.000Z,46.161
2017-07-15T05:07:17.000Z,46.117
2017-07-15T05:17:17.000Z,46.153
2017-07-15T05:27:17.000Z,46.293
2017-07-15T05:37:17.000Z,46.327
2017-07-15T05:47:17.000Z,46.318
2017-07-15T05:57:17.000Z,46.276
2017-07-15T06:07:17.000Z,46.042
2017-07-15T06:17:17.000Z,45.5
2017-07-15T06:27:17.000Z,45.996
2017-07-15T06:37:17.000Z,46.156
2017-07-15T06:47:17.000Z,46.21
2017-07-15T06:57:17.000Z,46.236
2017-07-15T07:07:17.000Z,46.174
2017-07-15T07:17:17.000Z,46.346
2017-07-15T07:27:17.000Z,46.328
2017-07-15T07:37:17.000Z,46.209
2017-07-15T07:47:17.000Z,46.105
2017-07-15T07:57:17.000Z,45.857
2017-07-15T08:07:17.000Z,45.902
2017-07-15T08:17:18.000Z,45.166
2017-07-15T08:27:21.000Z,45.193
2017-07-15T08:37:17.000Z,45.417
2017-07-15T08:47:17.000Z,45.458
2017-07-15T08:57:17.000Z,45.158
2017-07-15T09:07:17.000Z,45.105
2017-07-15T09:17:17.000Z,44.606
2017-07-15T09:27:17.000Z,44.515
2017-07-15T09:37:17.000Z,44.949
2017-07-15T09:47:17.000Z,45.275
2017-07-15T09:57:17.000Z,44.721
2017-07-15T10:07:17.000Z,44.017
2017-07-15T10:17:17.000Z,43.874
2017-07-15T10:27:17.000Z,43.467
2017-07-15T10:37:17.000Z,43.605
2017-07-15T10:47:17.000Z,42.67
2017-07-15T10:57:17.000Z,43.049
2017-07-15T11:07:17.000Z,42.893
2017-07-15T11:17:17.000Z,43.311
2017-07-15T11:27:17.000Z,43.192
2017-07-15T11:37:17.000Z,42.978
2017-07-15T11:47:17.000Z,42.71
2017-07-15T11:57:18.000Z,42.563
2017-07-15T12:07:18.000Z,42.241
2017-07-15T12:17:18.000Z,41.672
2017-07-15T12:27:18.000Z,41.448
2017-07-15T12:37:18.000Z,41.454
2017-07-15T12:47:18.000Z,41.163
2017-07-15T12:57:18.000Z,40.591
2017-07-15T13:07:18.000Z,40.606
2017-07-15T13:17:18.000Z,41.512
2017-07-15T13:27:18.000Z,41.65
2017-07-15T13:37:18.000Z,41.672
2017-07-15T13:47:18.000Z,41.278
2017-07-15T13:57:18.000Z,41.327
2017-07-15T14:07:18.000Z,40.959
2017-07-15T14:17:18.000Z,40.604
2017-07-15T14:27:18.000Z,39.303
2017-07-15T14:37:18.000Z,40.446
2017-07-15T14:47:18.000Z,41.98
2017-07-15T15:07:18.000Z,43.204
2017-07-15T15:17:18.000Z,43.698
2017-07-15T15:27:18.000Z,44.477
2017-07-15T15:37:18.000Z,44.532
2017-07-15T15:47:18.000Z,44.786
2017-07-15T15:57:18.000Z,44.499
2017-07-15T16:07:18.000Z,43.851
2017-07-15T16:17:18.000Z,43.753
2017-07-15T16:27:18.000Z,43.872
2017-07-15T16:37:18.000Z,44.409
2017-07-15T16:47:18.000Z,44.426
2017-07-15T16:57:18.000Z,44.302
2017-07-15T17:07:18.000Z,43.73
2017-07-15T17:17:18.000Z,43.852
2017-07-15T17:27:18.000Z,43.591
2017-07-15T17:37:18.000Z,43.413
2017-07-15T17:47:18.000Z,43.692
2017-07-15T17:57:18.000Z,43.688
2017-07-15T18:07:18.000Z,43.507
2017-07-15T18:17:18.000Z,43.384
2017-07-15T18:27:18.000Z,43.37
2017-07-15T18:37:18.000Z,43.11
2017-07-15T18:47:18.000Z,43.074
2017-07-15T18:57:18.000Z,43.027
2017-07-15T19:07:18.000Z,42.99
2017-07-15T19:17:18.000Z,43.007
2017-07-15T19:27:18.000Z,43.125
2017-07-15T19:37:18.000Z,43.166
2017-07-15T19:47:18.000Z,43.385
2017-07-15T19:57:18.000Z,43.613
2017-07-15T20:07:18.000Z,43.754
2017-07-15T20:17:19.000Z,43.949
2017-07-15T20:27:19.000Z,43.97
2017-07-15T20:37:19.000Z,43.895
2017-07-15T20:47:19.000Z,44.08
2017-07-15T20:57:19.000Z,44.199
2017-07-15T21:07:19.000Z,44.349
2017-07-15T21:17:19.000Z,44.5
2017-07-15T21:27:19.000Z,44.575
2017-07-15T21:37:19.000Z,44.649
2017-07-15T21:47:19.000Z,44.551
2017-07-15T21:57:19.000Z,44.494
2017-07-15T22:07:19.000Z,44.613
2017-07-15T22:17:19.000Z,44.72
2017-07-15T22:27:19.000Z,44.882
2017-07-15T22:37:19.000Z,44.932
2017-07-15T22:47:19.000Z,44.755
2017-07-15T22:57:19.000Z,44.698
2017-07-15T23:07:19.000Z,44.719
2017-07-15T23:17:19.000Z,44.708
2017-07-15T23:27:19.000Z,44.683
2017-07-15T23:37:19.000Z,44.736
2017-07-15T23:47:19.000Z,44.855
2017-07-15T23:57:19.000Z,44.963
